Terminal Aerodrome Forecast
Issued by NWS

Home | Current Version | Previous Version | Text Only | Print | Product List | Glossary On
Versions: 1 2 3 4 5 6 7 8 9 10 11 12 13 14 15 16 17 18 19 20 21 22 23 24 25 26 27 28 29 30 31 32 33 34 35 36 37 38 39 40
000
FTUS43 KGRB 242300
TAFRHI
TAF
KRHI 242328Z 2500/2524 23005KT P6SM SCT060 BKN250
     FM250600 19005KT P6SM SCT050 BKN120 WS010/23030KT
     FM251400 20009G18KT P6SM SCT040 BKN090 PROB30 2519/2523 -TSRA
      OVC035CB=

USA.gov is the U.S. government's official web portal to all federal, state and local government web resources and services.